sensor_id;sensor_type;location;lat;lon;timestamp;P1;durP1;ratioP1;P2;durP2;ratioP2
27402;SDS011;14862;49.494;8.530;2024-03-08T00:02:02;27.23;;;17.70;;
27402;SDS011;14862;49.494;8.530;2024-03-08T00:04:28;31.65;;;18.50;;
27402;SDS011;14862;49.494;8.530;2024-03-08T00:06:53;31.38;;;19.92;;
27402;SDS011;14862;49.494;8.530;2024-03-08T00:09:18;30.25;;;19.27;;
27402;SDS011;14862;49.494;8.530;2024-03-08T00:11:43;32.90;;;18.90;;
27402;SDS011;14862;49.494;8.530;2024-03-08T00:14:08;33.70;;;20.23;;
27402;SDS011;14862;49.494;8.530;2024-03-08T00:16:34;33.75;;;19.35;;
27402;SDS011;14862;49.494;8.530;2024-03-08T00:19:00;35.45;;;19.10;;
27402;SDS011;14862;49.494;8.530;2024-03-08T00:21:25;29.90;;;19.48;;
27402;SDS011;14862;49.494;8.530;2024-03-08T00:23:52;34.05;;;20.25;;
27402;SDS011;14862;49.494;8.530;2024-03-08T00:26:19;30.45;;;19.00;;
27402;SDS011;14862;49.494;8.530;2024-03-08T00:28:44;30.52;;;18.67;;
27402;SDS011;14862;49.494;8.530;2024-03-08T00:31:09;29.03;;;18.30;;
27402;SDS011;14862;49.494;8.530;2024-03-08T00:33:34;32.07;;;19.83;;
27402;SDS011;14862;49.494;8.530;2024-03-08T00:35:59;31.23;;;18.40;;
27402;SDS011;14862;49.494;8.530;2024-03-08T00:38:25;32.67;;;19.10;;
27402;SDS011;14862;49.494;8.530;2024-03-08T00:40:50;32.27;;;18.20;;
27402;SDS011;14862;49.494;8.530;2024-03-08T00:43:15;32.78;;;19.38;;
27402;SDS011;14862;49.494;8.530;2024-03-08T00:45:40;30.08;;;18.80;;
27402;SDS011;14862;49.494;8.530;2024-03-08T00:48:07;29.80;;;17.95;;
27402;SDS011;14862;49.494;8.530;2024-03-08T00:50:32;31.15;;;18.25;;
27402;SDS011;14862;49.494;8.530;2024-03-08T00:52:58;35.22;;;19.83;;
27402;SDS011;14862;49.494;8.530;2024-03-08T00:55:24;29.52;;;18.23;;
27402;SDS011;14862;49.494;8.530;2024-03-08T00:57:49;30.40;;;17.85;;
27402;SDS011;14862;49.494;8.530;2024-03-08T01:00:15;29.83;;;18.80;;
27402;SDS011;14862;49.494;8.530;2024-03-08T01:02:41;31.52;;;17.13;;
27402;SDS011;14862;49.494;8.530;2024-03-08T01:05:06;32.25;;;18.80;;
27402;SDS011;14862;49.494;8.530;2024-03-08T01:07:34;28.70;;;17.60;;
27402;SDS011;14862;49.494;8.530;2024-03-08T01:10:00;32.95;;;17.50;;
27402;SDS011;14862;49.494;8.530;2024-03-08T01:12:26;32.85;;;18.67;;
27402;SDS011;14862;49.494;8.530;2024-03-08T01:14:51;29.38;;;17.80;;
27402;SDS011;14862;49.494;8.530;2024-03-08T01:17:16;31.33;;;18.15;;
27402;SDS011;14862;49.494;8.530;2024-03-08T01:19:42;32.03;;;18.52;;
27402;SDS011;14862;49.494;8.530;2024-03-08T01:22:09;31.77;;;17.08;;
27402;SDS011;14862;49.494;8.530;2024-03-08T01:24:35;30.77;;;17.90;;
27402;SDS011;14862;49.494;8.530;2024-03-08T01:27:00;29.35;;;18.42;;
27402;SDS011;14862;49.494;8.530;2024-03-08T01:29:25;31.67;;;19.08;;
27402;SDS011;14862;49.494;8.530;2024-03-08T01:31:50;31.23;;;17.75;;
27402;SDS011;14862;49.494;8.530;2024-03-08T01:34:17;30.42;;;18.13;;
27402;SDS011;14862;49.494;8.530;2024-03-08T01:36:42;33.25;;;18.02;;
27402;SDS011;14862;49.494;8.530;2024-03-08T01:39:07;27.80;;;18.08;;
27402;SDS011;14862;49.494;8.530;2024-03-08T01:41:33;32.25;;;19.00;;
27402;SDS011;14862;49.494;8.530;2024-03-08T01:43:58;29.55;;;17.75;;
27402;SDS011;14862;49.494;8.530;2024-03-08T01:46:24;27.77;;;17.58;;
27402;SDS011;14862;49.494;8.530;2024-03-08T01:48:49;29.70;;;18.20;;
27402;SDS011;14862;49.494;8.530;2024-03-08T01:51:15;34.08;;;19.17;;
27402;SDS011;14862;49.494;8.530;2024-03-08T01:53:41;28.73;;;17.52;;
27402;SDS011;14862;49.494;8.530;2024-03-08T01:56:08;33.45;;;18.83;;
27402;SDS011;14862;49.494;8.530;2024-03-08T01:58:33;34.08;;;18.17;;
27402;SDS011;14862;49.494;8.530;2024-03-08T02:01:00;30.10;;;18.80;;
27402;SDS011;14862;49.494;8.530;2024-03-08T02:03:29;28.88;;;18.00;;
27402;SDS011;14862;49.494;8.530;2024-03-08T02:05:56;33.75;;;18.92;;
27402;SDS011;14862;49.494;8.530;2024-03-08T02:08:23;32.08;;;18.95;;
27402;SDS011;14862;49.494;8.530;2024-03-08T02:10:49;30.50;;;19.02;;
27402;SDS011;14862;49.494;8.530;2024-03-08T02:13:14;28.85;;;18.10;;
27402;SDS011;14862;49.494;8.530;2024-03-08T02:18:17;30.88;;;17.92;;
27402;SDS011;14862;49.494;8.530;2024-03-08T02:20:43;30.50;;;17.13;;
27402;SDS011;14862;49.494;8.530;2024-03-08T02:23:08;29.55;;;17.63;;
27402;SDS011;14862;49.494;8.530;2024-03-08T02:25:34;34.42;;;18.05;;
27402;SDS011;14862;49.494;8.530;2024-03-08T02:27:59;30.98;;;16.85;;
27402;SDS011;14862;49.494;8.530;2024-03-08T02:30:24;31.35;;;18.15;;
27402;SDS011;14862;49.494;8.530;2024-03-08T02:32:54;32.78;;;17.83;;
27402;SDS011;14862;49.494;8.530;2024-03-08T02:35:20;30.63;;;16.48;;
27402;SDS011;14862;49.494;8.530;2024-03-08T02:37:45;28.08;;;17.02;;
27402;SDS011;14862;49.494;8.530;2024-03-08T02:40:12;30.38;;;16.80;;
27402;SDS011;14862;49.494;8.530;2024-03-08T02:42:38;28.00;;;15.82;;
27402;SDS011;14862;49.494;8.530;2024-03-08T02:45:03;27.27;;;16.90;;
27402;SDS011;14862;49.494;8.530;2024-03-08T02:47:30;28.88;;;17.25;;
27402;SDS011;14862;49.494;8.530;2024-03-08T02:49:56;27.45;;;16.67;;
27402;SDS011;14862;49.494;8.530;2024-03-08T02:52:21;29.02;;;16.63;;
27402;SDS011;14862;49.494;8.530;2024-03-08T02:54:47;27.42;;;16.73;;
27402;SDS011;14862;49.494;8.530;2024-03-08T02:57:12;26.05;;;15.88;;
27402;SDS011;14862;49.494;8.530;2024-03-08T02:59:39;26.67;;;16.90;;
27402;SDS011;14862;49.494;8.530;2024-03-08T03:02:05;28.02;;;16.77;;
27402;SDS011;14862;49.494;8.530;2024-03-08T03:04:31;26.08;;;16.27;;
27402;SDS011;14862;49.494;8.530;2024-03-08T03:06:56;28.40;;;17.17;;
27402;SDS011;14862;49.494;8.530;2024-03-08T03:09:23;31.02;;;17.45;;
27402;SDS011;14862;49.494;8.530;2024-03-08T03:11:52;28.15;;;16.63;;
27402;SDS011;14862;49.494;8.530;2024-03-08T03:14:17;26.77;;;16.10;;
27402;SDS011;14862;49.494;8.530;2024-03-08T03:16:43;28.35;;;16.27;;
27402;SDS011;14862;49.494;8.530;2024-03-08T03:19:09;26.30;;;15.57;;
27402;SDS011;14862;49.494;8.530;2024-03-08T03:21:34;27.77;;;16.83;;
27402;SDS011;14862;49.494;8.530;2024-03-08T03:24:00;29.23;;;16.33;;
27402;SDS011;14862;49.494;8.530;2024-03-08T03:26:26;28.48;;;16.75;;
27402;SDS011;14862;49.494;8.530;2024-03-08T03:28:51;25.63;;;15.67;;
27402;SDS011;14862;49.494;8.530;2024-03-08T03:31:16;26.35;;;15.80;;
27402;SDS011;14862;49.494;8.530;2024-03-08T03:33:43;25.15;;;15.38;;
27402;SDS011;14862;49.494;8.530;2024-03-08T03:36:08;25.73;;;15.93;;
27402;SDS011;14862;49.494;8.530;2024-03-08T03:38:34;27.52;;;17.05;;
27402;SDS011;14862;49.494;8.530;2024-03-08T03:41:00;26.67;;;15.98;;
27402;SDS011;14862;49.494;8.530;2024-03-08T03:43:34;28.20;;;16.42;;
27402;SDS011;14862;49.494;8.530;2024-03-08T03:46:00;29.75;;;18.42;;
27402;SDS011;14862;49.494;8.530;2024-03-08T03:48:25;25.33;;;16.53;;
27402;SDS011;14862;49.494;8.530;2024-03-08T03:50:51;26.15;;;15.98;;
27402;SDS011;14862;49.494;8.530;2024-03-08T03:53:16;28.90;;;17.17;;
27402;SDS011;14862;49.494;8.530;2024-03-08T03:55:41;27.92;;;16.23;;
27402;SDS011;14862;49.494;8.530;2024-03-08T03:58:06;37.53;;;18.53;;
27402;SDS011;14862;49.494;8.530;2024-03-08T04:00:31;29.98;;;17.70;;
27402;SDS011;14862;49.494;8.530;2024-03-08T04:02:57;33.40;;;17.55;;
27402;SDS011;14862;49.494;8.530;2024-03-08T04:05:25;30.33;;;17.33;;
27402;SDS011;14862;49.494;8.530;2024-03-08T04:07:50;27.73;;;16.85;;
27402;SDS011;14862;49.494;8.530;2024-03-08T04:10:16;29.13;;;16.77;;
27402;SDS011;14862;49.494;8.530;2024-03-08T04:12:41;31.05;;;16.98;;
27402;SDS011;14862;49.494;8.530;2024-03-08T04:15:07;28.50;;;16.83;;
27402;SDS011;14862;49.494;8.530;2024-03-08T04:17:33;28.75;;;17.52;;
27402;SDS011;14862;49.494;8.530;2024-03-08T04:20:02;30.65;;;17.45;;
27402;SDS011;14862;49.494;8.530;2024-03-08T04:22:29;28.55;;;17.67;;
27402;SDS011;14862;49.494;8.530;2024-03-08T04:24:55;28.90;;;17.57;;
27402;SDS011;14862;49.494;8.530;2024-03-08T04:27:20;35.65;;;18.73;;
27402;SDS011;14862;49.494;8.530;2024-03-08T04:29:45;30.52;;;17.98;;
27402;SDS011;14862;49.494;8.530;2024-03-08T04:32:11;28.40;;;17.42;;
27402;SDS011;14862;49.494;8.530;2024-03-08T04:34:38;28.85;;;16.52;;
27402;SDS011;14862;49.494;8.530;2024-03-08T04:37:03;33.13;;;18.20;;
27402;SDS011;14862;49.494;8.530;2024-03-08T04:39:31;29.75;;;17.25;;
27402;SDS011;14862;49.494;8.530;2024-03-08T04:41:57;27.53;;;16.43;;
27402;SDS011;14862;49.494;8.530;2024-03-08T04:44:24;32.20;;;17.67;;
27402;SDS011;14862;49.494;8.530;2024-03-08T04:46:53;32.85;;;17.15;;
27402;SDS011;14862;49.494;8.530;2024-03-08T04:49:18;28.45;;;16.40;;
27402;SDS011;14862;49.494;8.530;2024-03-08T04:51:43;27.87;;;17.17;;
27402;SDS011;14862;49.494;8.530;2024-03-08T04:54:09;33.53;;;17.70;;
27402;SDS011;14862;49.494;8.530;2024-03-08T04:56:35;27.00;;;15.43;;
27402;SDS011;14862;49.494;8.530;2024-03-08T04:59:01;28.48;;;17.88;;
27402;SDS011;14862;49.494;8.530;2024-03-08T05:01:26;30.60;;;16.83;;
27402;SDS011;14862;49.494;8.530;2024-03-08T05:03:51;30.35;;;16.90;;
27402;SDS011;14862;49.494;8.530;2024-03-08T05:06:20;30.70;;;18.48;;
27402;SDS011;14862;49.494;8.530;2024-03-08T05:08:45;30.92;;;18.00;;
27402;SDS011;14862;49.494;8.530;2024-03-08T05:11:11;28.92;;;17.23;;
27402;SDS011;14862;49.494;8.530;2024-03-08T05:13:39;30.20;;;17.15;;
27402;SDS011;14862;49.494;8.530;2024-03-08T05:16:05;30.60;;;17.05;;
27402;SDS011;14862;49.494;8.530;2024-03-08T05:18:32;30.60;;;17.95;;
27402;SDS011;14862;49.494;8.530;2024-03-08T05:20:57;31.02;;;17.52;;
27402;SDS011;14862;49.494;8.530;2024-03-08T05:23:22;32.85;;;18.67;;
27402;SDS011;14862;49.494;8.530;2024-03-08T05:25:47;31.52;;;17.23;;
27402;SDS011;14862;49.494;8.530;2024-03-08T05:28:13;34.53;;;18.67;;
27402;SDS011;14862;49.494;8.530;2024-03-08T05:30:38;37.65;;;20.25;;
27402;SDS011;14862;49.494;8.530;2024-03-08T05:33:04;32.70;;;17.90;;
27402;SDS011;14862;49.494;8.530;2024-03-08T05:35:29;33.75;;;20.08;;
27402;SDS011;14862;49.494;8.530;2024-03-08T05:37:54;36.65;;;19.13;;
27402;SDS011;14862;49.494;8.530;2024-03-08T05:40:19;35.80;;;19.67;;
27402;SDS011;14862;49.494;8.530;2024-03-08T05:42:44;32.65;;;18.85;;
27402;SDS011;14862;49.494;8.530;2024-03-08T05:45:10;31.52;;;18.10;;
27402;SDS011;14862;49.494;8.530;2024-03-08T05:47:36;35.50;;;19.35;;
27402;SDS011;14862;49.494;8.530;2024-03-08T05:50:01;34.83;;;19.30;;
27402;SDS011;14862;49.494;8.530;2024-03-08T05:52:27;36.78;;;18.58;;
27402;SDS011;14862;49.494;8.530;2024-03-08T05:54:52;33.78;;;19.17;;
27402;SDS011;14862;49.494;8.530;2024-03-08T05:57:17;34.60;;;18.43;;
27402;SDS011;14862;49.494;8.530;2024-03-08T05:59:43;38.03;;;20.75;;
27402;SDS011;14862;49.494;8.530;2024-03-08T06:02:08;31.33;;;19.08;;
27402;SDS011;14862;49.494;8.530;2024-03-08T06:04:33;34.70;;;19.38;;
27402;SDS011;14862;49.494;8.530;2024-03-08T06:06:58;36.43;;;19.53;;
27402;SDS011;14862;49.494;8.530;2024-03-08T06:09:24;33.20;;;18.67;;
27402;SDS011;14862;49.494;8.530;2024-03-08T06:11:50;27.73;;;17.42;;
27402;SDS011;14862;49.494;8.530;2024-03-08T06:14:15;29.92;;;17.50;;
27402;SDS011;14862;49.494;8.530;2024-03-08T06:16:43;31.13;;;18.50;;
27402;SDS011;14862;49.494;8.530;2024-03-08T06:19:09;32.95;;;19.10;;
27402;SDS011;14862;49.494;8.530;2024-03-08T06:21:34;31.35;;;18.55;;
27402;SDS011;14862;49.494;8.530;2024-03-08T06:23:59;32.97;;;17.60;;
27402;SDS011;14862;49.494;8.530;2024-03-08T06:26:24;29.55;;;17.00;;
27402;SDS011;14862;49.494;8.530;2024-03-08T06:28:50;34.55;;;17.80;;
27402;SDS011;14862;49.494;8.530;2024-03-08T06:31:16;28.88;;;17.35;;
27402;SDS011;14862;49.494;8.530;2024-03-08T06:33:41;32.25;;;18.30;;
27402;SDS011;14862;49.494;8.530;2024-03-08T06:36:06;30.63;;;17.60;;
27402;SDS011;14862;49.494;8.530;2024-03-08T06:38:32;30.20;;;17.13;;
27402;SDS011;14862;49.494;8.530;2024-03-08T06:40:57;29.03;;;16.97;;
27402;SDS011;14862;49.494;8.530;2024-03-08T06:43:22;27.13;;;16.15;;
27402;SDS011;14862;49.494;8.530;2024-03-08T06:45:50;31.67;;;16.63;;
27402;SDS011;14862;49.494;8.530;2024-03-08T06:48:18;25.60;;;16.08;;
27402;SDS011;14862;49.494;8.530;2024-03-08T06:50:44;32.90;;;17.10;;
27402;SDS011;14862;49.494;8.530;2024-03-08T06:53:10;28.00;;;16.58;;
27402;SDS011;14862;49.494;8.530;2024-03-08T06:55:35;25.63;;;16.50;;
27402;SDS011;14862;49.494;8.530;2024-03-08T06:58:00;21.53;;;15.00;;
27402;SDS011;14862;49.494;8.530;2024-03-08T07:00:26;25.08;;;15.90;;
27402;SDS011;14862;49.494;8.530;2024-03-08T07:02:53;24.48;;;15.65;;
27402;SDS011;14862;49.494;8.530;2024-03-08T07:05:19;25.27;;;15.13;;
27402;SDS011;14862;49.494;8.530;2024-03-08T07:07:44;27.08;;;15.35;;
27402;SDS011;14862;49.494;8.530;2024-03-08T07:10:09;21.87;;;14.27;;
27402;SDS011;14862;49.494;8.530;2024-03-08T07:12:39;23.65;;;14.93;;
27402;SDS011;14862;49.494;8.530;2024-03-08T07:15:05;24.03;;;15.50;;
27402;SDS011;14862;49.494;8.530;2024-03-08T07:17:30;23.60;;;14.93;;
27402;SDS011;14862;49.494;8.530;2024-03-08T07:19:56;24.00;;;15.90;;
27402;SDS011;14862;49.494;8.530;2024-03-08T07:22:24;22.52;;;14.30;;
27402;SDS011;14862;49.494;8.530;2024-03-08T07:24:49;24.67;;;15.30;;
27402;SDS011;14862;49.494;8.530;2024-03-08T07:27:45;20.70;;;13.63;;
27402;SDS011;14862;49.494;8.530;2024-03-08T07:30:11;23.25;;;15.60;;
27402;SDS011;14862;49.494;8.530;2024-03-08T07:32:36;21.80;;;14.57;;
27402;SDS011;14862;49.494;8.530;2024-03-08T07:35:02;23.95;;;14.43;;
27402;SDS011;14862;49.494;8.530;2024-03-08T07:37:28;19.63;;;13.60;;
27402;SDS011;14862;49.494;8.530;2024-03-08T07:39:54;18.17;;;13.77;;
27402;SDS011;14862;49.494;8.530;2024-03-08T07:42:19;19.13;;;13.50;;
27402;SDS011;14862;49.494;8.530;2024-03-08T07:44:44;23.17;;;14.70;;
27402;SDS011;14862;49.494;8.530;2024-03-08T07:47:11;19.80;;;14.18;;
27402;SDS011;14862;49.494;8.530;2024-03-08T07:49:37;19.95;;;14.20;;
27402;SDS011;14862;49.494;8.530;2024-03-08T07:52:02;22.70;;;14.25;;
27402;SDS011;14862;49.494;8.530;2024-03-08T07:54:29;23.17;;;15.27;;
27402;SDS011;14862;49.494;8.530;2024-03-08T07:56:54;20.27;;;14.57;;
27402;SDS011;14862;49.494;8.530;2024-03-08T07:59:19;19.70;;;14.43;;
27402;SDS011;14862;49.494;8.530;2024-03-08T08:01:46;25.60;;;14.75;;
27402;SDS011;14862;49.494;8.530;2024-03-08T08:04:12;22.05;;;14.35;;
27402;SDS011;14862;49.494;8.530;2024-03-08T08:06:38;20.15;;;13.55;;
27402;SDS011;14862;49.494;8.530;2024-03-08T08:09:06;19.73;;;13.63;;
27402;SDS011;14862;49.494;8.530;2024-03-08T08:11:31;20.83;;;14.18;;
27402;SDS011;14862;49.494;8.530;2024-03-08T08:13:57;23.75;;;13.02;;
27402;SDS011;14862;49.494;8.530;2024-03-08T08:16:23;21.67;;;14.15;;
27402;SDS011;14862;49.494;8.530;2024-03-08T08:18:50;19.27;;;13.85;;
27402;SDS011;14862;49.494;8.530;2024-03-08T08:21:15;17.77;;;13.17;;
27402;SDS011;14862;49.494;8.530;2024-03-08T08:23:41;20.10;;;13.80;;
27402;SDS011;14862;49.494;8.530;2024-03-08T08:26:06;17.58;;;12.98;;
27402;SDS011;14862;49.494;8.530;2024-03-08T08:28:32;19.58;;;14.10;;
27402;SDS011;14862;49.494;8.530;2024-03-08T08:31:00;17.35;;;12.55;;
27402;SDS011;14862;49.494;8.530;2024-03-08T08:33:26;19.42;;;12.70;;
27402;SDS011;14862;49.494;8.530;2024-03-08T08:35:51;20.48;;;13.68;;
27402;SDS011;14862;49.494;8.530;2024-03-08T08:38:21;18.00;;;13.27;;
27402;SDS011;14862;49.494;8.530;2024-03-08T08:40:48;20.58;;;14.23;;
27402;SDS011;14862;49.494;8.530;2024-03-08T08:43:13;18.73;;;13.00;;
27402;SDS011;14862;49.494;8.530;2024-03-08T08:45:39;19.27;;;13.27;;
27402;SDS011;14862;49.494;8.530;2024-03-08T08:48:04;21.00;;;14.10;;
27402;SDS011;14862;49.494;8.530;2024-03-08T08:50:30;17.08;;;12.98;;
27402;SDS011;14862;49.494;8.530;2024-03-08T08:52:56;19.17;;;13.52;;
27402;SDS011;14862;49.494;8.530;2024-03-08T08:55:21;18.05;;;13.40;;
27402;SDS011;14862;49.494;8.530;2024-03-08T08:57:50;20.52;;;13.52;;
27402;SDS011;14862;49.494;8.530;2024-03-08T09:00:17;18.40;;;13.57;;
27402;SDS011;14862;49.494;8.530;2024-03-08T09:02:43;17.35;;;13.45;;
27402;SDS011;14862;49.494;8.530;2024-03-08T09:05:09;19.23;;;13.38;;
27402;SDS011;14862;49.494;8.530;2024-03-08T09:07:34;15.57;;;12.18;;
27402;SDS011;14862;49.494;8.530;2024-03-08T09:10:00;18.23;;;13.18;;
27402;SDS011;14862;49.494;8.530;2024-03-08T09:12:26;15.98;;;12.88;;
27402;SDS011;14862;49.494;8.530;2024-03-08T09:14:51;18.10;;;13.13;;
27402;SDS011;14862;49.494;8.530;2024-03-08T09:17:16;21.02;;;14.07;;
27402;SDS011;14862;49.494;8.530;2024-03-08T09:19:47;17.52;;;12.77;;
27402;SDS011;14862;49.494;8.530;2024-03-08T09:22:13;18.25;;;12.93;;
27402;SDS011;14862;49.494;8.530;2024-03-08T09:24:38;15.77;;;12.20;;
27402;SDS011;14862;49.494;8.530;2024-03-08T09:27:06;18.85;;;14.27;;
27402;SDS011;14862;49.494;8.530;2024-03-08T09:29:32;17.10;;;13.10;;
27402;SDS011;14862;49.494;8.530;2024-03-08T09:31:57;14.32;;;12.25;;
27402;SDS011;14862;49.494;8.530;2024-03-08T09:34:22;16.35;;;13.25;;
27402;SDS011;14862;49.494;8.530;2024-03-08T09:36:48;17.13;;;12.98;;
27402;SDS011;14862;49.494;8.530;2024-03-08T09:39:14;14.65;;;12.50;;
27402;SDS011;14862;49.494;8.530;2024-03-08T09:41:44;17.23;;;14.07;;
27402;SDS011;14862;49.494;8.530;2024-03-08T09:44:13;16.83;;;12.60;;
27402;SDS011;14862;49.494;8.530;2024-03-08T09:46:38;14.25;;;12.00;;
27402;SDS011;14862;49.494;8.530;2024-03-08T09:49:04;14.85;;;13.25;;
27402;SDS011;14862;49.494;8.530;2024-03-08T09:51:30;16.25;;;13.98;;
27402;SDS011;14862;49.494;8.530;2024-03-08T09:53:58;15.80;;;13.60;;
27402;SDS011;14862;49.494;8.530;2024-03-08T09:56:23;15.07;;;13.00;;
27402;SDS011;14862;49.494;8.530;2024-03-08T09:58:52;16.92;;;13.70;;
27402;SDS011;14862;49.494;8.530;2024-03-08T10:01:50;19.65;;;15.13;;
27402;SDS011;14862;49.494;8.530;2024-03-08T10:04:17;16.70;;;14.32;;
27402;SDS011;14862;49.494;8.530;2024-03-08T10:06:43;16.77;;;14.32;;
27402;SDS011;14862;49.494;8.530;2024-03-08T10:09:08;16.50;;;13.32;;
27402;SDS011;14862;49.494;8.530;2024-03-08T10:11:35;21.15;;;14.90;;
27402;SDS011;14862;49.494;8.530;2024-03-08T10:14:00;20.17;;;14.27;;
27402;SDS011;14862;49.494;8.530;2024-03-08T10:16:29;19.52;;;15.27;;
27402;SDS011;14862;49.494;8.530;2024-03-08T10:18:56;21.67;;;15.13;;
27402;SDS011;14862;49.494;8.530;2024-03-08T10:21:21;23.88;;;15.63;;
27402;SDS011;14862;49.494;8.530;2024-03-08T10:23:47;22.60;;;14.90;;
27402;SDS011;14862;49.494;8.530;2024-03-08T10:26:13;23.48;;;14.63;;
27402;SDS011;14862;49.494;8.530;2024-03-08T10:28:46;22.67;;;14.98;;
27402;SDS011;14862;49.494;8.530;2024-03-08T10:31:14;23.75;;;14.88;;
27402;SDS011;14862;49.494;8.530;2024-03-08T10:33:41;21.13;;;15.45;;
27402;SDS011;14862;49.494;8.530;2024-03-08T10:36:07;24.17;;;15.30;;
27402;SDS011;14862;49.494;8.530;2024-03-08T10:38:32;22.55;;;15.45;;
27402;SDS011;14862;49.494;8.530;2024-03-08T10:41:00;23.88;;;15.38;;
27402;SDS011;14862;49.494;8.530;2024-03-08T10:43:26;19.63;;;14.32;;
27402;SDS011;14862;49.494;8.530;2024-03-08T10:46:09;21.13;;;14.32;;
27402;SDS011;14862;49.494;8.530;2024-03-08T10:48:44;22.75;;;16.02;;
27402;SDS011;14862;49.494;8.530;2024-03-08T10:51:10;24.52;;;16.20;;
27402;SDS011;14862;49.494;8.530;2024-03-08T10:53:36;20.45;;;14.40;;
27402;SDS011;14862;49.494;8.530;2024-03-08T10:56:04;20.10;;;14.13;;
27402;SDS011;14862;49.494;8.530;2024-03-08T10:58:32;24.40;;;15.40;;
27402;SDS011;14862;49.494;8.530;2024-03-08T11:00:59;20.95;;;14.68;;
27402;SDS011;14862;49.494;8.530;2024-03-08T11:06:05;22.35;;;15.02;;
27402;SDS011;14862;49.494;8.530;2024-03-08T11:08:31;21.10;;;14.50;;
27402;SDS011;14862;49.494;8.530;2024-03-08T11:10:56;23.05;;;13.82;;
27402;SDS011;14862;49.494;8.530;2024-03-08T11:13:34;20.67;;;14.82;;
27402;SDS011;14862;49.494;8.530;2024-03-08T11:16:00;23.02;;;15.82;;
27402;SDS011;14862;49.494;8.530;2024-03-08T11:18:26;21.15;;;15.68;;
27402;SDS011;14862;49.494;8.530;2024-03-08T11:20:53;24.30;;;14.85;;
27402;SDS011;14862;49.494;8.530;2024-03-08T11:23:19;21.13;;;13.77;;
27402;SDS011;14862;49.494;8.530;2024-03-08T11:25:47;23.40;;;14.88;;
27402;SDS011;14862;49.494;8.530;2024-03-08T11:28:18;21.40;;;14.75;;
27402;SDS011;14862;49.494;8.530;2024-03-08T11:30:47;24.90;;;15.48;;
27402;SDS011;14862;49.494;8.530;2024-03-08T11:33:29;24.95;;;14.50;;
27402;SDS011;14862;49.494;8.530;2024-03-08T11:36:07;23.95;;;15.57;;
27402;SDS011;14862;49.494;8.530;2024-03-08T11:38:42;19.50;;;13.80;;
27402;SDS011;14862;49.494;8.530;2024-03-08T11:41:23;21.77;;;15.23;;
27402;SDS011;14862;49.494;8.530;2024-03-08T11:43:49;25.35;;;15.77;;
27402;SDS011;14862;49.494;8.530;2024-03-08T11:46:16;22.67;;;14.85;;
27402;SDS011;14862;49.494;8.530;2024-03-08T11:48:42;23.98;;;15.68;;
27402;SDS011;14862;49.494;8.530;2024-03-08T11:51:08;26.73;;;15.52;;
27402;SDS011;14862;49.494;8.530;2024-03-08T11:53:33;21.70;;;15.02;;
27402;SDS011;14862;49.494;8.530;2024-03-08T11:56:08;22.92;;;15.65;;
27402;SDS011;14862;49.494;8.530;2024-03-08T11:58:33;22.73;;;15.05;;
27402;SDS011;14862;49.494;8.530;2024-03-08T12:01:04;26.48;;;15.38;;
27402;SDS011;14862;49.494;8.530;2024-03-08T12:03:30;25.05;;;16.23;;
27402;SDS011;14862;49.494;8.530;2024-03-08T12:05:58;25.05;;;15.50;;
27402;SDS011;14862;49.494;8.530;2024-03-08T12:08:24;22.35;;;14.93;;
27402;SDS011;14862;49.494;8.530;2024-03-08T12:10:53;24.73;;;16.05;;
27402;SDS011;14862;49.494;8.530;2024-03-08T12:13:20;23.83;;;15.30;;
27402;SDS011;14862;49.494;8.530;2024-03-08T12:15:46;21.17;;;13.95;;
27402;SDS011;14862;49.494;8.530;2024-03-08T12:18:11;23.95;;;16.50;;
27402;SDS011;14862;49.494;8.530;2024-03-08T12:20:37;23.13;;;15.27;;
27402;SDS011;14862;49.494;8.530;2024-03-08T12:23:04;23.00;;;15.52;;
27402;SDS011;14862;49.494;8.530;2024-03-08T12:25:31;21.23;;;14.90;;
27402;SDS011;14862;49.494;8.530;2024-03-08T12:27:56;25.83;;;15.88;;
27402;SDS011;14862;49.494;8.530;2024-03-08T12:30:25;25.50;;;17.33;;
27402;SDS011;14862;49.494;8.530;2024-03-08T12:32:57;22.52;;;15.13;;
27402;SDS011;14862;49.494;8.530;2024-03-08T12:35:24;26.13;;;16.70;;
27402;SDS011;14862;49.494;8.530;2024-03-08T12:37:50;24.05;;;15.60;;
27402;SDS011;14862;49.494;8.530;2024-03-08T12:40:16;25.17;;;16.20;;
27402;SDS011;14862;49.494;8.530;2024-03-08T12:42:45;24.75;;;16.45;;
27402;SDS011;14862;49.494;8.530;2024-03-08T12:45:12;26.33;;;17.20;;
27402;SDS011;14862;49.494;8.530;2024-03-08T12:47:38;25.58;;;16.13;;
27402;SDS011;14862;49.494;8.530;2024-03-08T12:50:03;26.13;;;16.27;;
27402;SDS011;14862;49.494;8.530;2024-03-08T12:52:28;25.02;;;16.10;;
27402;SDS011;14862;49.494;8.530;2024-03-08T12:54:55;24.75;;;15.93;;
27402;SDS011;14862;49.494;8.530;2024-03-08T12:57:20;26.38;;;16.98;;
27402;SDS011;14862;49.494;8.530;2024-03-08T12:59:45;22.03;;;15.13;;
27402;SDS011;14862;49.494;8.530;2024-03-08T13:02:10;26.52;;;15.32;;
27402;SDS011;14862;49.494;8.530;2024-03-08T13:04:36;25.13;;;15.63;;
27402;SDS011;14862;49.494;8.530;2024-03-08T13:07:01;23.20;;;14.48;;
27402;SDS011;14862;49.494;8.530;2024-03-08T13:09:27;27.75;;;15.20;;
27402;SDS011;14862;49.494;8.530;2024-03-08T13:11:52;26.17;;;16.50;;
27402;SDS011;14862;49.494;8.530;2024-03-08T13:14:20;20.88;;;13.80;;
27402;SDS011;14862;49.494;8.530;2024-03-08T13:16:45;22.70;;;13.30;;
27402;SDS011;14862;49.494;8.530;2024-03-08T13:19:13;23.40;;;14.30;;
27402;SDS011;14862;49.494;8.530;2024-03-08T13:21:38;22.73;;;14.07;;
27402;SDS011;14862;49.494;8.530;2024-03-08T13:24:03;22.90;;;14.52;;
27402;SDS011;14862;49.494;8.530;2024-03-08T13:26:28;23.83;;;14.25;;
27402;SDS011;14862;49.494;8.530;2024-03-08T13:28:57;25.48;;;15.73;;
27402;SDS011;14862;49.494;8.530;2024-03-08T13:31:23;21.50;;;14.90;;
27402;SDS011;14862;49.494;8.530;2024-03-08T13:33:48;23.08;;;16.23;;
27402;SDS011;14862;49.494;8.530;2024-03-08T13:36:14;21.55;;;15.32;;
27402;SDS011;14862;49.494;8.530;2024-03-08T13:38:47;22.15;;;15.52;;
27402;SDS011;14862;49.494;8.530;2024-03-08T13:41:12;21.52;;;14.68;;
27402;SDS011;14862;49.494;8.530;2024-03-08T13:43:40;21.42;;;14.25;;
27402;SDS011;14862;49.494;8.530;2024-03-08T13:46:05;22.08;;;14.50;;
27402;SDS011;14862;49.494;8.530;2024-03-08T13:48:32;23.23;;;15.93;;
27402;SDS011;14862;49.494;8.530;2024-03-08T13:50:57;22.92;;;15.27;;
27402;SDS011;14862;49.494;8.530;2024-03-08T13:53:22;24.73;;;14.85;;
27402;SDS011;14862;49.494;8.530;2024-03-08T13:55:48;24.98;;;14.63;;
27402;SDS011;14862;49.494;8.530;2024-03-08T13:58:14;20.00;;;14.13;;
27402;SDS011;14862;49.494;8.530;2024-03-08T14:00:39;25.50;;;15.77;;
27402;SDS011;14862;49.494;8.530;2024-03-08T14:03:06;25.00;;;15.40;;
27402;SDS011;14862;49.494;8.530;2024-03-08T14:05:32;19.77;;;13.38;;
27402;SDS011;14862;49.494;8.530;2024-03-08T14:08:00;23.52;;;15.20;;
27402;SDS011;14862;49.494;8.530;2024-03-08T14:10:26;21.55;;;14.82;;
27402;SDS011;14862;49.494;8.530;2024-03-08T14:12:52;20.40;;;14.63;;
27402;SDS011;14862;49.494;8.530;2024-03-08T14:15:17;23.73;;;14.80;;
27402;SDS011;14862;49.494;8.530;2024-03-08T14:17:42;20.75;;;13.32;;
27402;SDS011;14862;49.494;8.530;2024-03-08T14:20:08;20.60;;;13.60;;
27402;SDS011;14862;49.494;8.530;2024-03-08T14:22:34;20.60;;;14.00;;